sensor_id;sensor_type;location;lat;lon;timestamp;temperature;humidity
13344;DHT22;6741;48.964;9.406;2024-03-17T00:02:17;5.60;99.90
13344;DHT22;6741;48.964;9.406;2024-03-17T00:04:42;5.50;99.90
13344;DHT22;6741;48.964;9.406;2024-03-17T00:07:11;5.50;99.90
13344;DHT22;6741;48.964;9.406;2024-03-17T00:09:36;5.50;99.90
13344;DHT22;6741;48.964;9.406;2024-03-17T00:12:04;5.40;99.90
13344;DHT22;6741;48.964;9.406;2024-03-17T00:14:30;5.40;99.90
13344;DHT22;6741;48.964;9.406;2024-03-17T00:16:57;5.30;99.90
13344;DHT22;6741;48.964;9.406;2024-03-17T00:19:23;5.30;99.90
13344;DHT22;6741;48.964;9.406;2024-03-17T00:21:50;5.40;99.90
13344;DHT22;6741;48.964;9.406;2024-03-17T00:24:18;5.40;99.90
13344;DHT22;6741;48.964;9.406;2024-03-17T00:26:45;5.40;99.90
13344;DHT22;6741;48.964;9.406;2024-03-17T00:29:11;5.40;99.90
13344;DHT22;6741;48.964;9.406;2024-03-17T00:31:38;5.40;99.90
13344;DHT22;6741;48.964;9.406;2024-03-17T00:34:04;5.30;99.90
13344;DHT22;6741;48.964;9.406;2024-03-17T00:36:30;5.20;99.90
13344;DHT22;6741;48.964;9.406;2024-03-17T00:38:57;5.20;99.90
13344;DHT22;6741;48.964;9.406;2024-03-17T00:41:25;5.30;99.90
13344;DHT22;6741;48.964;9.406;2024-03-17T00:43:51;5.30;99.90
13344;DHT22;6741;48.964;9.406;2024-03-17T00:46:18;5.30;99.90
13344;DHT22;6741;48.964;9.406;2024-03-17T00:48:47;5.30;99.90
13344;DHT22;6741;48.964;9.406;2024-03-17T00:51:14;5.20;99.90
13344;DHT22;6741;48.964;9.406;2024-03-17T00:53:40;5.20;99.90
13344;DHT22;6741;48.964;9.406;2024-03-17T00:56:07;5.20;99.90
13344;DHT22;6741;48.964;9.406;2024-03-17T00:58:34;5.20;99.90
13344;DHT22;6741;48.964;9.406;2024-03-17T01:01:01;5.20;99.90
13344;DHT22;6741;48.964;9.406;2024-03-17T01:03:27;5.20;99.90
13344;DHT22;6741;48.964;9.406;2024-03-17T01:05:54;5.30;99.90
13344;DHT22;6741;48.964;9.406;2024-03-17T01:08:21;5.30;99.90
13344;DHT22;6741;48.964;9.406;2024-03-17T01:10:48;5.20;99.90
13344;DHT22;6741;48.964;9.406;2024-03-17T01:13:15;5.20;99.90
13344;DHT22;6741;48.964;9.406;2024-03-17T01:15:44;5.20;99.90
13344;DHT22;6741;48.964;9.406;2024-03-17T01:18:09;5.20;99.90
13344;DHT22;6741;48.964;9.406;2024-03-17T01:20:37;5.20;99.90
13344;DHT22;6741;48.964;9.406;2024-03-17T01:23:03;5.10;99.90
13344;DHT22;6741;48.964;9.406;2024-03-17T01:25:33;5.10;99.90
13344;DHT22;6741;48.964;9.406;2024-03-17T01:28:02;4.90;99.90
13344;DHT22;6741;48.964;9.406;2024-03-17T01:30:29;5.00;99.90
13344;DHT22;6741;48.964;9.406;2024-03-17T01:32:57;5.00;99.90
13344;DHT22;6741;48.964;9.406;2024-03-17T01:35:25;5.00;99.90
13344;DHT22;6741;48.964;9.406;2024-03-17T01:37:51;4.90;99.90
13344;DHT22;6741;48.964;9.406;2024-03-17T01:40:17;4.90;99.90
13344;DHT22;6741;48.964;9.406;2024-03-17T01:42:44;4.90;99.90
13344;DHT22;6741;48.964;9.406;2024-03-17T01:45:23;4.90;99.90
13344;DHT22;6741;48.964;9.406;2024-03-17T01:47:50;4.70;99.90
13344;DHT22;6741;48.964;9.406;2024-03-17T01:50:18;4.70;99.90
13344;DHT22;6741;48.964;9.406;2024-03-17T01:52:51;4.70;99.90
13344;DHT22;6741;48.964;9.406;2024-03-17T01:55:18;4.70;99.90
13344;DHT22;6741;48.964;9.406;2024-03-17T01:57:44;4.80;99.90
13344;DHT22;6741;48.964;9.406;2024-03-17T02:00:12;4.70;99.90
13344;DHT22;6741;48.964;9.406;2024-03-17T02:02:37;4.70;99.90
13344;DHT22;6741;48.964;9.406;2024-03-17T02:05:05;4.80;99.90
13344;DHT22;6741;48.964;9.406;2024-03-17T02:07:32;4.70;99.90
13344;DHT22;6741;48.964;9.406;2024-03-17T02:10:00;4.70;99.90
13344;DHT22;6741;48.964;9.406;2024-03-17T02:12:28;4.70;99.90
13344;DHT22;6741;48.964;9.406;2024-03-17T02:14:56;4.70;99.90
13344;DHT22;6741;48.964;9.406;2024-03-17T02:17:22;4.70;99.90
13344;DHT22;6741;48.964;9.406;2024-03-17T02:19:50;4.70;99.90
13344;DHT22;6741;48.964;9.406;2024-03-17T02:22:18;4.80;99.90
13344;DHT22;6741;48.964;9.406;2024-03-17T02:24:45;4.80;99.90
13344;DHT22;6741;48.964;9.406;2024-03-17T02:27:12;4.70;99.90
13344;DHT22;6741;48.964;9.406;2024-03-17T02:29:39;4.70;99.90
13344;DHT22;6741;48.964;9.406;2024-03-17T02:32:05;4.70;99.90
13344;DHT22;6741;48.964;9.406;2024-03-17T02:34:33;4.70;99.90
13344;DHT22;6741;48.964;9.406;2024-03-17T02:36:59;4.70;99.90
13344;DHT22;6741;48.964;9.406;2024-03-17T02:39:27;4.70;99.90
13344;DHT22;6741;48.964;9.406;2024-03-17T02:41:59;4.50;99.90
13344;DHT22;6741;48.964;9.406;2024-03-17T02:44:26;4.60;99.90
13344;DHT22;6741;48.964;9.406;2024-03-17T02:46:53;4.60;99.90
13344;DHT22;6741;48.964;9.406;2024-03-17T02:49:20;4.70;99.90
13344;DHT22;6741;48.964;9.406;2024-03-17T02:51:47;4.60;99.90
13344;DHT22;6741;48.964;9.406;2024-03-17T02:54:14;4.50;99.90
13344;DHT22;6741;48.964;9.406;2024-03-17T02:56:42;4.50;99.90
13344;DHT22;6741;48.964;9.406;2024-03-17T02:59:09;4.60;99.90
13344;DHT22;6741;48.964;9.406;2024-03-17T03:01:36;4.60;99.90
13344;DHT22;6741;48.964;9.406;2024-03-17T03:04:03;4.60;99.90
13344;DHT22;6741;48.964;9.406;2024-03-17T03:06:31;4.60;99.90
13344;DHT22;6741;48.964;9.406;2024-03-17T03:08:58;4.50;99.90
13344;DHT22;6741;48.964;9.406;2024-03-17T03:11:25;4.50;99.90
13344;DHT22;6741;48.964;9.406;2024-03-17T03:13:53;4.50;99.90
13344;DHT22;6741;48.964;9.406;2024-03-17T03:16:20;4.40;99.90
13344;DHT22;6741;48.964;9.406;2024-03-17T03:18:47;4.40;99.90
13344;DHT22;6741;48.964;9.406;2024-03-17T03:21:14;4.50;99.90
13344;DHT22;6741;48.964;9.406;2024-03-17T03:23:41;4.50;99.90
13344;DHT22;6741;48.964;9.406;2024-03-17T03:26:07;4.50;99.90
13344;DHT22;6741;48.964;9.406;2024-03-17T03:28:35;4.40;99.90
13344;DHT22;6741;48.964;9.406;2024-03-17T03:31:04;4.40;99.90
13344;DHT22;6741;48.964;9.406;2024-03-17T03:33:32;4.40;99.90
13344;DHT22;6741;48.964;9.406;2024-03-17T03:35:59;4.40;99.90
13344;DHT22;6741;48.964;9.406;2024-03-17T03:38:33;4.40;99.90
13344;DHT22;6741;48.964;9.406;2024-03-17T03:41:06;4.40;99.90
13344;DHT22;6741;48.964;9.406;2024-03-17T03:43:33;4.30;99.90
13344;DHT22;6741;48.964;9.406;2024-03-17T03:46:00;4.30;99.90
13344;DHT22;6741;48.964;9.406;2024-03-17T03:48:29;4.30;99.90
13344;DHT22;6741;48.964;9.406;2024-03-17T03:50:55;4.30;99.90
13344;DHT22;6741;48.964;9.406;2024-03-17T03:53:22;4.20;99.90
13344;DHT22;6741;48.964;9.406;2024-03-17T03:55:49;4.20;99.90
13344;DHT22;6741;48.964;9.406;2024-03-17T03:58:16;4.10;99.90
13344;DHT22;6741;48.964;9.406;2024-03-17T04:00:43;4.10;99.90
13344;DHT22;6741;48.964;9.406;2024-03-17T04:03:11;4.10;99.90
13344;DHT22;6741;48.964;9.406;2024-03-17T04:05:39;4.10;99.90
13344;DHT22;6741;48.964;9.406;2024-03-17T04:08:06;4.00;99.90
13344;DHT22;6741;48.964;9.406;2024-03-17T04:10:34;3.90;99.90
13344;DHT22;6741;48.964;9.406;2024-03-17T04:13:01;3.80;99.90
13344;DHT22;6741;48.964;9.406;2024-03-17T04:15:28;3.80;99.90
13344;DHT22;6741;48.964;9.406;2024-03-17T04:17:55;3.80;99.90
13344;DHT22;6741;48.964;9.406;2024-03-17T04:20:22;3.70;99.90
13344;DHT22;6741;48.964;9.406;2024-03-17T04:22:50;3.70;99.90
13344;DHT22;6741;48.964;9.406;2024-03-17T04:25:17;3.80;99.90
13344;DHT22;6741;48.964;9.406;2024-03-17T04:27:44;3.80;99.90
13344;DHT22;6741;48.964;9.406;2024-03-17T04:30:11;3.90;99.90
13344;DHT22;6741;48.964;9.406;2024-03-17T04:32:39;4.00;99.90
13344;DHT22;6741;48.964;9.406;2024-03-17T04:35:07;3.90;99.90
13344;DHT22;6741;48.964;9.406;2024-03-17T04:37:33;3.90;99.90
13344;DHT22;6741;48.964;9.406;2024-03-17T04:40:07;3.80;99.90
13344;DHT22;6741;48.964;9.406;2024-03-17T04:42:36;3.70;99.90
13344;DHT22;6741;48.964;9.406;2024-03-17T04:45:06;3.80;99.90
13344;DHT22;6741;48.964;9.406;2024-03-17T04:47:35;3.70;99.90
13344;DHT22;6741;48.964;9.406;2024-03-17T04:50:02;3.70;99.90
13344;DHT22;6741;48.964;9.406;2024-03-17T04:52:29;3.70;99.90
13344;DHT22;6741;48.964;9.406;2024-03-17T04:54:56;3.80;99.90
13344;DHT22;6741;48.964;9.406;2024-03-17T04:57:24;3.80;99.90
13344;DHT22;6741;48.964;9.406;2024-03-17T04:59:51;3.80;99.90
13344;DHT22;6741;48.964;9.406;2024-03-17T05:02:18;3.80;99.90
13344;DHT22;6741;48.964;9.406;2024-03-17T05:04:45;3.80;99.90
13344;DHT22;6741;48.964;9.406;2024-03-17T05:07:12;3.80;99.90
13344;DHT22;6741;48.964;9.406;2024-03-17T05:09:39;3.80;99.90
13344;DHT22;6741;48.964;9.406;2024-03-17T05:12:06;3.80;99.90
13344;DHT22;6741;48.964;9.406;2024-03-17T05:14:34;3.80;99.90
13344;DHT22;6741;48.964;9.406;2024-03-17T05:17:01;3.80;99.90
13344;DHT22;6741;48.964;9.406;2024-03-17T05:19:28;3.80;99.90
13344;DHT22;6741;48.964;9.406;2024-03-17T05:21:55;3.80;99.90
13344;DHT22;6741;48.964;9.406;2024-03-17T05:24:22;3.80;99.90
13344;DHT22;6741;48.964;9.406;2024-03-17T05:26:49;3.90;99.90
13344;DHT22;6741;48.964;9.406;2024-03-17T05:29:16;3.90;99.90
13344;DHT22;6741;48.964;9.406;2024-03-17T05:31:44;3.80;99.90
13344;DHT22;6741;48.964;9.406;2024-03-17T05:34:12;3.70;99.90
13344;DHT22;6741;48.964;9.406;2024-03-17T05:36:39;3.60;99.90
13344;DHT22;6741;48.964;9.406;2024-03-17T05:39:06;3.60;99.90
13344;DHT22;6741;48.964;9.406;2024-03-17T05:41:33;3.50;99.90
13344;DHT22;6741;48.964;9.406;2024-03-17T05:44:01;3.50;99.90
13344;DHT22;6741;48.964;9.406;2024-03-17T05:46:29;3.60;99.90
13344;DHT22;6741;48.964;9.406;2024-03-17T05:48:57;3.50;99.90
13344;DHT22;6741;48.964;9.406;2024-03-17T05:51:24;3.50;99.90
13344;DHT22;6741;48.964;9.406;2024-03-17T05:53:53;3.60;99.90
13344;DHT22;6741;48.964;9.406;2024-03-17T05:56:21;3.50;99.90
13344;DHT22;6741;48.964;9.406;2024-03-17T05:58:48;3.40;99.90
13344;DHT22;6741;48.964;9.406;2024-03-17T06:01:15;3.30;99.90
13344;DHT22;6741;48.964;9.406;2024-03-17T06:03:42;3.30;99.90
13344;DHT22;6741;48.964;9.406;2024-03-17T06:06:10;3.30;99.90
13344;DHT22;6741;48.964;9.406;2024-03-17T06:08:38;3.30;99.90
13344;DHT22;6741;48.964;9.406;2024-03-17T06:11:05;3.30;99.90
13344;DHT22;6741;48.964;9.406;2024-03-17T06:13:32;3.30;99.90
13344;DHT22;6741;48.964;9.406;2024-03-17T06:16:01;3.50;99.90
13344;DHT22;6741;48.964;9.406;2024-03-17T06:18:28;3.50;99.90
13344;DHT22;6741;48.964;9.406;2024-03-17T06:20:55;3.50;99.90
13344;DHT22;6741;48.964;9.406;2024-03-17T06:23:25;3.50;99.90
13344;DHT22;6741;48.964;9.406;2024-03-17T06:25:53;3.60;99.90
13344;DHT22;6741;48.964;9.406;2024-03-17T06:28:21;3.50;99.90
13344;DHT22;6741;48.964;9.406;2024-03-17T06:30:55;3.60;99.90
13344;DHT22;6741;48.964;9.406;2024-03-17T06:33:25;3.60;99.90
13344;DHT22;6741;48.964;9.406;2024-03-17T06:35:53;3.70;99.90
13344;DHT22;6741;48.964;9.406;2024-03-17T06:38:22;3.80;99.90
13344;DHT22;6741;48.964;9.406;2024-03-17T06:40:50;3.90;99.90
13344;DHT22;6741;48.964;9.406;2024-03-17T06:43:17;4.00;99.90
13344;DHT22;6741;48.964;9.406;2024-03-17T06:45:53;4.10;99.90
13344;DHT22;6741;48.964;9.406;2024-03-17T06:48:21;4.20;99.90
13344;DHT22;6741;48.964;9.406;2024-03-17T06:50:48;4.30;99.90
13344;DHT22;6741;48.964;9.406;2024-03-17T06:53:15;4.30;99.90
13344;DHT22;6741;48.964;9.406;2024-03-17T06:55:42;4.40;99.90
13344;DHT22;6741;48.964;9.406;2024-03-17T06:58:10;4.50;99.90
13344;DHT22;6741;48.964;9.406;2024-03-17T07:00:37;4.60;99.90
13344;DHT22;6741;48.964;9.406;2024-03-17T07:03:04;4.70;99.90
13344;DHT22;6741;48.964;9.406;2024-03-17T07:05:30;4.70;99.90
13344;DHT22;6741;48.964;9.406;2024-03-17T07:07:59;4.70;99.90
13344;DHT22;6741;48.964;9.406;2024-03-17T07:10:26;4.80;99.90
13344;DHT22;6741;48.964;9.406;2024-03-17T07:12:53;5.00;99.90
13344;DHT22;6741;48.964;9.406;2024-03-17T07:15:21;5.10;99.90
13344;DHT22;6741;48.964;9.406;2024-03-17T07:17:50;5.20;99.90
13344;DHT22;6741;48.964;9.406;2024-03-17T07:20:17;5.30;99.90
13344;DHT22;6741;48.964;9.406;2024-03-17T07:22:44;5.40;99.90
13344;DHT22;6741;48.964;9.406;2024-03-17T07:25:11;5.50;99.90
13344;DHT22;6741;48.964;9.406;2024-03-17T07:27:38;5.70;99.90
13344;DHT22;6741;48.964;9.406;2024-03-17T07:30:07;5.70;99.90
13344;DHT22;6741;48.964;9.406;2024-03-17T07:32:36;5.80;99.90
13344;DHT22;6741;48.964;9.406;2024-03-17T07:35:03;5.90;99.90
13344;DHT22;6741;48.964;9.406;2024-03-17T07:37:32;6.00;99.90
13344;DHT22;6741;48.964;9.406;2024-03-17T07:39:59;6.10;99.90
13344;DHT22;6741;48.964;9.406;2024-03-17T07:42:26;6.30;99.90
13344;DHT22;6741;48.964;9.406;2024-03-17T07:44:53;6.60;99.90
13344;DHT22;6741;48.964;9.406;2024-03-17T07:47:20;6.70;99.90
13344;DHT22;6741;48.964;9.406;2024-03-17T07:49:48;6.80;99.90
13344;DHT22;6741;48.964;9.406;2024-03-17T07:52:15;6.90;99.90
13344;DHT22;6741;48.964;9.406;2024-03-17T07:54:44;7.10;99.90
13344;DHT22;6741;48.964;9.406;2024-03-17T07:57:12;7.20;99.90
13344;DHT22;6741;48.964;9.406;2024-03-17T07:59:40;7.20;99.90
13344;DHT22;6741;48.964;9.406;2024-03-17T08:02:08;7.30;99.90
13344;DHT22;6741;48.964;9.406;2024-03-17T08:04:35;7.50;99.90
13344;DHT22;6741;48.964;9.406;2024-03-17T08:07:04;7.70;99.90
13344;DHT22;6741;48.964;9.406;2024-03-17T08:09:31;7.90;99.90
13344;DHT22;6741;48.964;9.406;2024-03-17T08:11:58;8.00;99.90
13344;DHT22;6741;48.964;9.406;2024-03-17T08:14:25;8.30;99.90
13344;DHT22;6741;48.964;9.406;2024-03-17T08:16:52;8.60;99.90
13344;DHT22;6741;48.964;9.406;2024-03-17T08:19:19;8.80;99.90
13344;DHT22;6741;48.964;9.406;2024-03-17T08:21:46;9.10;99.90
13344;DHT22;6741;48.964;9.406;2024-03-17T08:24:14;9.20;99.90
13344;DHT22;6741;48.964;9.406;2024-03-17T08:26:41;9.30;99.90
13344;DHT22;6741;48.964;9.406;2024-03-17T08:29:07;9.60;99.90
13344;DHT22;6741;48.964;9.406;2024-03-17T08:31:33;9.70;99.90
13344;DHT22;6741;48.964;9.406;2024-03-17T08:34:00;9.80;99.90
13344;DHT22;6741;48.964;9.406;2024-03-17T08:36:27;9.90;99.90
13344;DHT22;6741;48.964;9.406;2024-03-17T08:38:54;10.00;99.90
13344;DHT22;6741;48.964;9.406;2024-03-17T08:41:24;10.20;99.90
13344;DHT22;6741;48.964;9.406;2024-03-17T08:43:51;10.30;99.90
13344;DHT22;6741;48.964;9.406;2024-03-17T08:46:18;10.40;99.90
13344;DHT22;6741;48.964;9.406;2024-03-17T08:48:44;10.50;99.90
13344;DHT22;6741;48.964;9.406;2024-03-17T08:51:11;10.50;99.90
13344;DHT22;6741;48.964;9.406;2024-03-17T08:53:38;10.60;99.90
13344;DHT22;6741;48.964;9.406;2024-03-17T08:56:07;10.80;99.90
13344;DHT22;6741;48.964;9.406;2024-03-17T08:58:35;11.00;99.90
13344;DHT22;6741;48.964;9.406;2024-03-17T09:01:06;11.10;99.90
13344;DHT22;6741;48.964;9.406;2024-03-17T09:03:34;11.10;99.90
13344;DHT22;6741;48.964;9.406;2024-03-17T09:06:01;11.20;99.90
13344;DHT22;6741;48.964;9.406;2024-03-17T09:08:28;11.20;99.90
13344;DHT22;6741;48.964;9.406;2024-03-17T09:10:55;11.20;99.90
13344;DHT22;6741;48.964;9.406;2024-03-17T09:13:23;11.20;99.90
13344;DHT22;6741;48.964;9.406;2024-03-17T09:15:53;11.30;97.00
13344;DHT22;6741;48.964;9.406;2024-03-17T09:18:22;11.30;99.90
13344;DHT22;6741;48.964;9.406;2024-03-17T09:20:59;11.40;99.10
13344;DHT22;6741;48.964;9.406;2024-03-17T09:23:26;11.70;83.60
13344;DHT22;6741;48.964;9.406;2024-03-17T09:25:57;11.60;1.00
13344;DHT22;6741;48.964;9.406;2024-03-17T09:28:24;11.70;1.00
13344;DHT22;6741;48.964;9.406;2024-03-17T09:30:52;12.00;1.00
13344;DHT22;6741;48.964;9.406;2024-03-17T09:33:20;12.30;1.00
13344;DHT22;6741;48.964;9.406;2024-03-17T09:35:53;12.40;1.00
13344;DHT22;6741;48.964;9.406;2024-03-17T09:38:21;12.60;1.00
13344;DHT22;6741;48.964;9.406;2024-03-17T09:40:48;12.90;1.00
13344;DHT22;6741;48.964;9.406;2024-03-17T09:43:18;13.10;1.00
13344;DHT22;6741;48.964;9.406;2024-03-17T09:45:45;13.40;1.00
13344;DHT22;6741;48.964;9.406;2024-03-17T09:48:15;13.50;77.30
13344;DHT22;6741;48.964;9.406;2024-03-17T09:50:47;13.40;99.90
13344;DHT22;6741;48.964;9.406;2024-03-17T09:53:16;13.10;55.50
13344;DHT22;6741;48.964;9.406;2024-03-17T09:55:44;13.30;1.00
13344;DHT22;6741;48.964;9.406;2024-03-17T09:58:15;13.40;1.00
13344;DHT22;6741;48.964;9.406;2024-03-17T10:00:43;13.50;99.90
13344;DHT22;6741;48.964;9.406;2024-03-17T10:03:10;13.50;99.90
13344;DHT22;6741;48.964;9.406;2024-03-17T10:05:38;13.40;1.00
13344;DHT22;6741;48.964;9.406;2024-03-17T10:08:05;13.40;1.00
13344;DHT22;6741;48.964;9.406;2024-03-17T10:10:34;13.60;1.00
13344;DHT22;6741;48.964;9.406;2024-03-17T10:13:02;13.60;8.50
13344;DHT22;6741;48.964;9.406;2024-03-17T10:15:28;13.50;1.00
13344;DHT22;6741;48.964;9.406;2024-03-17T10:17:56;13.60;99.90
13344;DHT22;6741;48.964;9.406;2024-03-17T10:20:24;13.70;99.90
13344;DHT22;6741;48.964;9.406;2024-03-17T10:23:10;13.60;1.00
13344;DHT22;6741;48.964;9.406;2024-03-17T10:25:40;13.80;99.90
13344;DHT22;6741;48.964;9.406;2024-03-17T10:28:11;14.30;1.00
13344;DHT22;6741;48.964;9.406;2024-03-17T10:30:38;14.50;99.90
13344;DHT22;6741;48.964;9.406;2024-03-17T10:33:06;14.80;1.00
13344;DHT22;6741;48.964;9.406;2024-03-17T10:35:38;15.30;1.00
13344;DHT22;6741;48.964;9.406;2024-03-17T10:38:07;15.20;1.00
13344;DHT22;6741;48.964;9.406;2024-03-17T10:40:36;15.50;99.90
13344;DHT22;6741;48.964;9.406;2024-03-17T10:43:04;15.50;1.00
13344;DHT22;6741;48.964;9.406;2024-03-17T10:45:32;15.70;99.90
13344;DHT22;6741;48.964;9.406;2024-03-17T10:48:02;15.80;1.00
13344;DHT22;6741;48.964;9.406;2024-03-17T10:50:31;15.80;99.90
13344;DHT22;6741;48.964;9.406;2024-03-17T10:53:01;15.70;99.90
13344;DHT22;6741;48.964;9.406;2024-03-17T10:55:32;15.40;1.00
13344;DHT22;6741;48.964;9.406;2024-03-17T10:58:17;14.90;18.70
13344;DHT22;6741;48.964;9.406;2024-03-17T11:00:50;14.60;1.00
13344;DHT22;6741;48.964;9.406;2024-03-17T11:03:18;14.40;99.90
13344;DHT22;6741;48.964;9.406;2024-03-17T11:05:47;14.80;1.00
13344;DHT22;6741;48.964;9.406;2024-03-17T11:08:16;14.90;99.90
13344;DHT22;6741;48.964;9.406;2024-03-17T11:10:49;15.20;1.00
13344;DHT22;6741;48.964;9.406;2024-03-17T11:13:26;15.80;1.00
13344;DHT22;6741;48.964;9.406;2024-03-17T11:15:54;16.10;1.00
13344;DHT22;6741;48.964;9.406;2024-03-17T11:18:41;16.40;22.10
13344;DHT22;6741;48.964;9.406;2024-03-17T11:21:21;16.70;1.00
13344;DHT22;6741;48.964;9.406;2024-03-17T11:23:59;17.40;99.90
13344;DHT22;6741;48.964;9.406;2024-03-17T11:26:33;17.50;1.00
13344;DHT22;6741;48.964;9.406;2024-03-17T11:29:02;17.50;3.00
13344;DHT22;6741;48.964;9.406;2024-03-17T11:31:43;17.70;14.20
13344;DHT22;6741;48.964;9.406;2024-03-17T11:34:25;18.20;31.00
13344;DHT22;6741;48.964;9.406;2024-03-17T11:36:54;17.80;53.20
13344;DHT22;6741;48.964;9.406;2024-03-17T11:39:20;17.90;39.50
13344;DHT22;6741;48.964;9.406;2024-03-17T11:41:51;17.70;12.80
13344;DHT22;6741;48.964;9.406;2024-03-17T11:44:25;17.90;16.10
13344;DHT22;6741;48.964;9.406;2024-03-17T11:46:54;18.60;24.40
13344;DHT22;6741;48.964;9.406;2024-03-17T11:49:22;19.40;72.70
13344;DHT22;6741;48.964;9.406;2024-03-17T11:51:50;19.80;84.30
13344;DHT22;6741;48.964;9.406;2024-03-17T11:54:17;19.90;88.30
13344;DHT22;6741;48.964;9.406;2024-03-17T11:56:47;20.00;90.50
13344;DHT22;6741;48.964;9.406;2024-03-17T11:59:13;19.80;92.40
13344;DHT22;6741;48.964;9.406;2024-03-17T12:01:45;19.60;99.90
13344;DHT22;6741;48.964;9.406;2024-03-17T12:04:12;19.30;99.90
13344;DHT22;6741;48.964;9.406;2024-03-17T12:06:43;18.90;99.90
13344;DHT22;6741;48.964;9.406;2024-03-17T12:09:18;18.70;99.90
13344;DHT22;6741;48.964;9.406;2024-03-17T12:11:47;18.60;99.90
13344;DHT22;6741;48.964;9.406;2024-03-17T12:14:15;18.50;99.90
13344;DHT22;6741;48.964;9.406;2024-03-17T12:16:50;18.60;99.90
13344;DHT22;6741;48.964;9.406;2024-03-17T12:19:17;18.70;99.90
13344;DHT22;6741;48.964;9.406;2024-03-17T12:21:46;18.60;99.90
13344;DHT22;6741;48.964;9.406;2024-03-17T12:24:15;18.20;99.90
13344;DHT22;6741;48.964;9.406;2024-03-17T12:26:43;17.80;99.90
13344;DHT22;6741;48.964;9.406;2024-03-17T12:29:23;17.60;99.90
13344;DHT22;6741;48.964;9.406;2024-03-17T12:31:53;17.80;99.90
13344;DHT22;6741;48.964;9.406;2024-03-17T12:34:19;17.30;99.90
13344;DHT22;6741;48.964;9.406;2024-03-17T12:36:47;17.60;99.90
13344;DHT22;6741;48.964;9.406;2024-03-17T12:39:23;18.10;99.90
13344;DHT22;6741;48.964;9.406;2024-03-17T12:42:04;18.50;99.90
13344;DHT22;6741;48.964;9.406;2024-03-17T12:44:31;19.00;99.90
13344;DHT22;6741;48.964;9.406;2024-03-17T12:47:00;19.30;99.90
13344;DHT22;6741;48.964;9.406;2024-03-17T12:49:27;19.40;99.90
13344;DHT22;6741;48.964;9.406;2024-03-17T12:51:54;19.30;99.90
13344;DHT22;6741;48.964;9.406;2024-03-17T12:54:22;18.70;99.90
13344;DHT22;6741;48.964;9.406;2024-03-17T12:56:50;17.70;99.90
13344;DHT22;6741;48.964;9.406;2024-03-17T12:59:39;16.60;99.90
13344;DHT22;6741;48.964;9.406;2024-03-17T13:02:25;16.20;99.90
13344;DHT22;6741;48.964;9.406;2024-03-17T13:05:15;15.60;99.90
13344;DHT22;6741;48.964;9.406;2024-03-17T13:07:43;15.70;99.90
13344;DHT22;6741;48.964;9.406;2024-03-17T13:10:12;15.50;99.90
13344;DHT22;6741;48.964;9.406;2024-03-17T13:12:41;15.40;99.90
13344;DHT22;6741;48.964;9.406;2024-03-17T13:15:10;15.40;99.90
13344;DHT22;6741;48.964;9.406;2024-03-17T13:17:39;15.20;99.90
13344;DHT22;6741;48.964;9.406;2024-03-17T13:20:07;14.80;99.90
13344;DHT22;6741;48.964;9.406;2024-03-17T13:22:37;14.80;99.90
13344;DHT22;6741;48.964;9.406;2024-03-17T13:25:08;14.80;99.90
13344;DHT22;6741;48.964;9.406;2024-03-17T13:27:35;14.80;99.90
13344;DHT22;6741;48.964;9.406;2024-03-17T13:30:02;14.70;99.90
13344;DHT22;6741;48.964;9.406;2024-03-17T13:32:29;14.70;99.90
13344;DHT22;6741;48.964;9.406;2024-03-17T13:34:57;14.20;99.90
13344;DHT22;6741;48.964;9.406;2024-03-17T13:37:24;14.20;99.90
13344;DHT22;6741;48.964;9.406;2024-03-17T13:39:50;14.40;99.90
13344;DHT22;6741;48.964;9.406;2024-03-17T13:42:17;14.40;99.90
13344;DHT22;6741;48.964;9.406;2024-03-17T13:44:46;14.40;99.90
13344;DHT22;6741;48.964;9.406;2024-03-17T13:47:14;14.50;99.90
13344;DHT22;6741;48.964;9.406;2024-03-17T13:49:42;14.60;99.90
13344;DHT22;6741;48.964;9.406;2024-03-17T13:52:10;14.80;99.90
13344;DHT22;6741;48.964;9.406;2024-03-17T13:54:37;14.80;99.90
13344;DHT22;6741;48.964;9.406;2024-03-17T13:57:04;14.80;99.90
13344;DHT22;6741;48.964;9.406;2024-03-17T13:59:31;14.90;99.90
13344;DHT22;6741;48.964;9.406;2024-03-17T14:01:59;14.90;99.90
13344;DHT22;6741;48.964;9.406;2024-03-17T14:04:27;14.90;99.90
13344;DHT22;6741;48.964;9.406;2024-03-17T14:06:55;14.90;99.90
13344;DHT22;6741;48.964;9.406;2024-03-17T14:09:23;15.00;99.90
13344;DHT22;6741;48.964;9.406;2024-03-17T14:11:50;14.70;99.90
13344;DHT22;6741;48.964;9.406;2024-03-17T14:14:17;14.60;99.90
13344;DHT22;6741;48.964;9.406;2024-03-17T14:16:44;14.50;99.90
13344;DHT22;6741;48.964;9.406;2024-03-17T14:19:11;14.50;99.90
13344;DHT22;6741;48.964;9.406;2024-03-17T14:21:37;14.40;99.90
13344;DHT22;6741;48.964;9.406;2024-03-17T14:24:05;14.60;99.90
13344;DHT22;6741;48.964;9.406;2024-03-17T14:26:34;14.50;99.90
13344;DHT22;6741;48.964;9.406;2024-03-17T14:29:01;14.60;99.90
13344;DHT22;6741;48.964;9.406;2024-03-17T14:31:30;14.40;99.90
13344;DHT22;6741;48.964;9.406;2024-03-17T14:33:58;14.50;99.90
13344;DHT22;6741;48.964;9.406;2024-03-17T14:36:26;14.60;99.90
13344;DHT22;6741;48.964;9.406;2024-03-17T14:38:53;14.80;99.90
13344;DHT22;6741;48.964;9.406;2024-03-17T14:41:21;15.10;99.90
13344;DHT22;6741;48.964;9.406;2024-03-17T14:43:49;15.30;99.90
13344;DHT22;6741;48.964;9.406;2024-03-17T14:46:16;15.40;99.90
13344;DHT22;6741;48.964;9.406;2024-03-17T14:48:43;15.50;99.90
13344;DHT22;6741;48.964;9.406;2024-03-17T14:51:10;15.60;99.90
13344;DHT22;6741;48.964;9.406;2024-03-17T14:53:38;15.70;99.90
13344;DHT22;6741;48.964;9.406;2024-03-17T14:56:13;15.90;99.90
13344;DHT22;6741;48.964;9.406;2024-03-17T14:58:41;16.00;99.90
13344;DHT22;6741;48.964;9.406;2024-03-17T15:01:10;16.20;99.90
13344;DHT22;6741;48.964;9.406;2024-03-17T15:03:37;16.40;99.90
13344;DHT22;6741;48.964;9.406;2024-03-17T15:06:11;16.80;99.90
13344;DHT22;6741;48.964;9.406;2024-03-17T15:08:40;16.90;99.90
13344;DHT22;6741;48.964;9.406;2024-03-17T15:11:07;17.20;99.90
13344;DHT22;6741;48.964;9.406;2024-03-17T15:13:35;17.60;99.90
13344;DHT22;6741;48.964;9.406;2024-03-17T15:16:02;18.20;99.90
13344;DHT22;6741;48.964;9.406;2024-03-17T15:18:31;18.20;99.90
13344;DHT22;6741;48.964;9.406;2024-03-17T15:20:59;18.60;99.90
13344;DHT22;6741;48.964;9.406;2024-03-17T15:23:27;18.30;99.90
13344;DHT22;6741;48.964;9.406;2024-03-17T15:26:01;18.00;99.90
13344;DHT22;6741;48.964;9.406;2024-03-17T15:28:33;17.40;99.90
13344;DHT22;6741;48.964;9.406;2024-03-17T15:31:04;17.00;99.90
13344;DHT22;6741;48.964;9.406;2024-03-17T15:33:33;16.60;99.90
13344;DHT22;6741;48.964;9.406;2024-03-17T15:36:02;16.20;99.90
13344;DHT22;6741;48.964;9.406;2024-03-17T15:38:30;16.10;99.90
13344;DHT22;6741;48.964;9.406;2024-03-17T15:40:59;16.10;99.90
13344;DHT22;6741;48.964;9.406;2024-03-17T15:43:27;15.70;99.90
13344;DHT22;6741;48.964;9.406;2024-03-17T15:45:57;15.60;99.90
13344;DHT22;6741;48.964;9.406;2024-03-17T15:48:24;15.60;99.90
13344;DHT22;6741;48.964;9.406;2024-03-17T15:50:56;15.50;99.90
13344;DHT22;6741;48.964;9.406;2024-03-17T15:53:23;15.40;99.90
13344;DHT22;6741;48.964;9.406;2024-03-17T15:55:55;15.40;99.90
13344;DHT22;6741;48.964;9.406;2024-03-17T15:58:23;15.30;99.90
13344;DHT22;6741;48.964;9.406;2024-03-17T16:00:50;15.20;99.90
13344;DHT22;6741;48.964;9.406;2024-03-17T16:03:17;15.00;99.90